Marseillais 6 — FQSJ — position and weather

sailwx.info

Track history (hours):
 
Tides and Currents Weather Stations Pressure Air Temp Water Temp Dewpoint Dewpoint Depression Visibility Wind Speed Wind Dir Waves Ship Positions

Marseillais 6

Last reported at 2016-May-28 09:33 UTC. Time now 2016-May-28 09:57 UTC.
Position N 43°24' E 004°59'.

Length 35 m; draft 5 m.

Type: Tug. MMSI: 227016900.

Date/timePositionNaut miles runAvg speedWind from/ knotsBaromVisibWave heightAir tempDewpointWater temp
2016-May-28 09:33N 43°24' E 004°59'0 0.0
2016-May-28 08:33N 43°24' E 004°59'0 0.0
2016-May-28 07:33N 43°24' E 004°59'5 5.1
2016-May-28 06:33N 43°24' E 004°52'0 0.4
2016-May-28 05:33N 43°24' E 004°51'2 0.7
2016-May-28 02:32N 43°26' E 004°54'0 0.0
2016-May-28 01:33N 43°26' E 004°54'0 0.0
2016-May-28 00:34N 43°26' E 004°54'0 0.0
2016-May-27 23:33N 43°26' E 004°54'0 0.0
2016-May-27 22:26N 43°26' E 004°54'0 0.0
2016-May-27 18:22N 43°26' E 004°54'0 0.0
2016-May-27 17:33N 43°26' E 004°54'0 0.0
2016-May-27 16:29N 43°26' E 004°54'0 0.0
2016-May-27 15:13N 43°26' E 004°54'0 0.0
2016-May-27 13:05N 43°26' E 004°54'0 0.0
2016-May-27 11:10N 43°26' E 004°54'0 0.0
2016-May-27 10:26N 43°26' E 004°54'0 0.0
2016-May-27 05:14N 43°26' E 004°54'0 0.0
2016-May-27 04:33N 43°26' E 004°54'0 0.0
2016-May-27 03:33N 43°26' E 004°54'0 0.0
2016-May-27 02:33N 43°26' E 004°54'0 0.0
2016-May-27 01:14N 43°26' E 004°54'0 0.0
2016-May-27 00:33N 43°26' E 004°54'0 0.0
2016-May-26 18:28N 43°26' E 004°54'0 0.0
2016-May-26 17:22N 43°26' E 004°54'0 0.0
2016-May-26 06:29N 43°26' E 004°54'0 0.0
2016-May-26 05:31N 43°26' E 004°54'0 0.0
2016-May-26 04:33N 43°26' E 004°54'0 0.0
2016-May-26 03:34N 43°26' E 004°54'0 0.0
2016-May-26 02:30N 43°26' E 004°54'0 0.0
2016-May-26 01:30N 43°26' E 004°54'2 2.0
2016-May-26 00:34N 43°24' E 004°53'1 1.3
2016-May-25 23:33N 43°25' E 004°53'1 0.6
2016-May-25 22:28N 43°26' E 004°54'3 3.0
2016-May-25 21:33N 43°24' E 004°51'2 1.7
2016-May-25 20:33N 43°25' E 004°53'1 1.0
2016-May-25 19:33N 43°26' E 004°54'0 0.0
2016-May-25 18:33N 43°26' E 004°54'0 0.0
2016-May-25 15:33N 43°26' E 004°54'0 0.0
2016-May-25 14:26N 43°26' E 004°54'0 0.0
2016-May-25 09:09N 43°26' E 004°54'0 0.0
2016-May-25 07:31N 43°26' E 004°54'0 0.0
2016-May-25 06:32N 43°26' E 004°54'0 0.0
2016-May-25 05:32N 43°26' E 004°54'0 0.0
2016-May-25 04:33N 43°26' E 004°54'0 0.0
2016-May-25 03:33N 43°26' E 004°54'0 0.0
2016-May-25 02:33N 43°26' E 004°54'0 0.0
2016-May-25 01:32N 43°26' E 004°54'0 0.0
2016-May-25 00:32N 43°26' E 004°54'0 0.0
2016-May-24 23:33N 43°26' E 004°54'0 0.0
2016-May-24 22:34N 43°26' E 004°54'3 2.8
2016-May-24 21:32N 43°25' E 004°50'2 2.4
2016-May-24 20:33N 43°24' E 004°53'2 1.4
2016-May-24 19:29N 43°26' E 004°54'0 0.0
2016-May-24 18:34N 43°26' E 004°54'0 0.0
2016-May-24 17:33N 43°26' E 004°54'0 0.0
2016-May-24 16:34N 43°26' E 004°54'2 2.4
2016-May-24 15:33N 43°25' E 004°51'2 1.8
2016-May-24 14:27N 43°24' E 004°53'2 0.4
2016-May-24 10:27N 43°26' E 004°54'0 0.0
2016-May-24 09:10N 43°26' E 004°54'0 0.0
2016-May-24 08:32N 43°26' E 004°54'0 0.0
2016-May-24 07:32N 43°26' E 004°54'0 0.0
2016-May-24 06:30N 43°26' E 004°54'0 0.0
2016-May-24 05:33N 43°26' E 004°54'0 0.0
2016-May-24 04:28N 43°26' E 004°54'3 2.7
2016-May-24 03:33N 43°25' E 004°51'2 1.9
2016-May-24 02:33N 43°24' E 004°53'2 1.5
2016-May-24 01:31N 43°26' E 004°52'1 1.5
2016-May-24 00:33N 43°25' E 004°51'2 1.8
2016-May-23 23:33N 43°25' E 004°53'1 0.7
2016-May-23 22:32N 43°26' E 004°54'0 0.0
2016-May-23 21:33N 43°26' E 004°54'0 0.0
2016-May-23 20:34N 43°26' E 004°54'0 0.0
2016-May-23 19:33N 43°26' E 004°54'0 0.0
2016-May-23 18:29N 43°26' E 004°54'0 0.0
2016-May-23 17:32N 43°26' E 004°54'0 0.0
2016-May-23 16:30N 43°26' E 004°54'0 0.0
2016-May-23 15:33N 43°26' E 004°54'0 0.0
2016-May-23 14:24N 43°26' E 004°54'0 0.0
2016-May-23 13:34N 43°26' E 004°54'0 0.0
2016-May-23 12:31N 43°26' E 004°54'0 0.0
2016-May-23 11:33N 43°26' E 004°54'2 1.8
2016-May-23 10:34N 43°24' E 004°53'1 0.8
2016-May-23 09:33N 43°25' E 004°53'1 1.1
2016-May-23 08:33N 43°26' E 004°54'0 0.0
2016-May-23 07:25N 43°26' E 004°54'0 0.0
2016-May-23 06:33N 43°26' E 004°54'0 0.0
2016-May-23 05:33N 43°26' E 004°54'0 0.0
2016-May-23 04:33N 43°26' E 004°54'0 0.0
2016-May-23 03:33N 43°26' E 004°54'0 0.0
2016-May-23 02:33N 43°26' E 004°54'0 0.0
2016-May-23 01:34N 43°26' E 004°54'0 0.0
2016-May-23 00:27N 43°26' E 004°54'0 0.0
2016-May-22 23:32N 43°26' E 004°54'0 0.0
2016-May-22 22:30N 43°26' E 004°54'0 0.0
2016-May-22 21:31N 43°26' E 004°54'0 0.0
2016-May-22 20:33N 43°26' E 004°54'0 0.3
2016-May-22 19:33N 43°26' E 004°54'1 0.9
2016-May-22 18:34N 43°25' E 004°54'1 1.1
2016-May-22 17:32N 43°26' E 004°54'0 0.0
2016-May-22 16:32N 43°26' E 004°54'3 2.7
2016-May-22 15:33N 43°25' E 004°51'2 1.8
2016-May-22 14:34N 43°25' E 004°53'1 1.2
2016-May-22 13:34N 43°26' E 004°54'1 1.1
2016-May-22 12:33N 43°25' E 004°53'2 1.8
2016-May-22 11:33N 43°25' E 004°51'1 1.5
2016-May-22 10:33N 43°25' E 004°53'1 1.1
2016-May-22 09:33N 43°26' E 004°54'0 0.0
2016-May-22 08:34N 43°26' E 004°54'0 0.0
2016-May-22 07:33N 43°26' E 004°54'0 0.0
2016-May-22 06:33N 43°26' E 004°54'0 0.0
2016-May-22 05:34N 43°26' E 004°54'0 0.0
2016-May-22 04:33N 43°26' E 004°54'0 0.0
2016-May-22 03:34N 43°26' E 004°54'0 0.0
2016-May-22 02:28N 43°26' E 004°54'0 0.0
2016-May-22 01:33N 43°26' E 004°54'0 0.0
2016-May-22 00:34N 43°26' E 004°54'2 2.3
2016-May-21 23:33N 43°24' E 004°51'0 0.3
2016-May-21 22:33N 43°24' E 004°52'1 1.1
2016-May-21 21:33N 43°24' E 004°53'1 1.2
2016-May-21 20:33N 43°25' E 004°53'1 0.8
2016-May-21 19:33N 43°26' E 004°54'0 0.0
2016-May-21 13:33N 43°26' E 004°54'0 0.0
2016-May-21 12:33N 43°26' E 004°54'0 0.0
2016-May-21 11:30N 43°26' E 004°54'3 3.3
2016-May-21 10:33N 43°24' E 004°51'3 2.8
2016-May-21 09:34N 43°25' E 004°54'0 0.2
2016-May-21 07:25N 43°26' E 004°54'0 0.0
2016-May-21 06:33N 43°26' E 004°54'1 0.7
2016-May-21 05:33N 43°25' E 004°53'1 1.5
2016-May-21 04:34N 43°24' E 004°54'4 3.5
2016-May-21 03:33N 43°24' E 004°59'0 0.0
2016-May-21 02:33N 43°24' E 004°59'0 0.0
2016-May-21 01:34N 43°24' E 004°59'0 0.4
2016-May-21 00:33N 43°24' E 004°60'5 4.4
2016-May-20 23:30N 43°25' E 004°53'4 4.7
2016-May-20 22:33N 43°24' E 004°59'0 0.0
2016-May-20 21:33N 43°24' E 004°59'1 0.5
2016-May-20 20:33N 43°23' E 004°59'1 0.5
2016-May-20 19:33N 43°24' E 004°59'1 1.2
2016-May-20 18:33N 43°23' E 004°57'3 2.9
2016-May-20 17:33N 43°25' E 004°54'4 4.3
2016-May-20 16:33N 43°24' E 004°60'0 0.2
2016-May-20 15:33N 43°24' E 004°59'0 0.3
2016-May-20 14:34N 43°24' E 004°59'0 0.0
2016-May-20 13:33N 43°24' E 004°59'0 0.0
2016-May-20 12:33N 43°24' E 004°59'0 0.0
2016-May-20 11:34N 43°24' E 004°59'0 0.0
2016-May-20 10:33N 43°24' E 004°59'0 0.0
2016-May-20 09:34N 43°24' E 004°59'0 0.0
2016-May-20 08:33N 43°24' E 004°59'0 0.0
2016-May-20 07:33N 43°24' E 004°59'0 0.0
2016-May-20 06:34N 43°24' E 004°59'0 0.0
2016-May-20 05:34N 43°24' E 004°59'0 0.0
2016-May-20 04:33N 43°24' E 004°59'0 0.0
2016-May-20 03:33N 43°24' E 004°59'0 0.0
2016-May-20 02:33N 43°24' E 004°59'0 0.0
2016-May-20 01:33N 43°24' E 004°59'0 0.0
2016-May-20 00:33N 43°24' E 004°59'0 0.0
2016-May-19 23:33N 43°24' E 004°59'0 0.0
2016-May-19 22:33N 43°24' E 004°59'0 0.0
2016-May-19 21:34N 43°24' E 004°59'0 0.0
2016-May-19 20:33N 43°24' E 004°59'0 0.0
2016-May-19 19:33N 43°24' E 004°59'0 0.0
2016-May-19 18:34N 43°24' E 004°59'0 0.0
2016-May-19 17:33N 43°24' E 004°59'0 0.0
2016-May-19 16:34N 43°24' E 004°59'0 0.0
2016-May-19 15:33N 43°24' E 004°59'0 0.0
2016-May-19 14:33N 43°24' E 004°59'0 0.0
2016-May-19 13:33N 43°24' E 004°59'0 0.0
2016-May-19 12:33N 43°24' E 004°59'0 0.0
2016-May-19 11:33N 43°24' E 004°59'0 0.0
2016-May-19 10:33N 43°24' E 004°59'0 0.0
2016-May-19 09:33N 43°24' E 004°59'0 0.0
2016-May-19 08:34N 43°24' E 004°59'0 0.0
2016-May-19 07:33N 43°24' E 004°59'0 0.0
2016-May-19 06:34N 43°24' E 004°59'0 0.0
2016-May-19 05:34N 43°24' E 004°59'0 0.0
2016-May-19 04:33N 43°24' E 004°59'0 0.0
2016-May-19 03:33N 43°24' E 004°59'0 0.0
2016-May-19 02:33N 43°24' E 004°59'0 0.0
2016-May-19 01:33N 43°24' E 004°59'0 0.0
2016-May-19 00:33N 43°24' E 004°59'0 0.0
2016-May-18 23:33N 43°24' E 004°59'0 0.0
2016-May-18 22:33N 43°24' E 004°59'0 0.0
2016-May-18 21:33N 43°24' E 004°59'0 0.0
2016-May-18 20:33N 43°24' E 004°59'0 0.0
2016-May-18 19:33N 43°24' E 004°59'0 0.0
2016-May-18 18:34N 43°24' E 004°59'0 0.0
2016-May-18 17:33N 43°24' E 004°59'0 0.0
2016-May-18 16:34N 43°24' E 004°59'0 0.0
2016-May-18 15:33N 43°24' E 004°59'0 0.0
2016-May-18 14:33N 43°24' E 004°59'0 0.0
2016-May-18 13:34N 43°24' E 004°59'0 0.0
2016-May-18 12:34N 43°24' E 004°59'0 0.0
2016-May-18 11:33N 43°24' E 004°59'0 0.0
2016-May-18 10:34N 43°24' E 004°59'0 0.0
2016-May-18 09:33N 43°24' E 004°59'  
Track history (hours):
 
Tides and Currents Weather Stations Pressure Air Temp Water Temp Dewpoint Dewpoint Depression Visibility Wind Speed Wind Dir Waves Ship Positions

Marseillais 6

Last reported at 2016-May-28 09:33 UTC. Time now 2016-May-28 09:57 UTC.
Position N 43°24' E 004°59'.

Length 35 m; draft 5 m.

Type: Tug. MMSI: 227016900.

Date/timePositionNaut miles runAvg speedWind from/ knotsBaromVisibWave heightAir tempDewpointWater temp
2016-May-28 09:33N 43°24' E 004°59'0 0.0
2016-May-28 08:33N 43°24' E 004°59'0 0.0
2016-May-28 07:33N 43°24' E 004°59'5 5.1
2016-May-28 06:33N 43°24' E 004°52'0 0.4
2016-May-28 05:33N 43°24' E 004°51'2 0.7
2016-May-28 02:32N 43°26' E 004°54'0 0.0
2016-May-28 01:33N 43°26' E 004°54'0 0.0
2016-May-28 00:34N 43°26' E 004°54'0 0.0
2016-May-27 23:33N 43°26' E 004°54'0 0.0
2016-May-27 22:26N 43°26' E 004°54'0 0.0
2016-May-27 18:22N 43°26' E 004°54'0 0.0
2016-May-27 17:33N 43°26' E 004°54'0 0.0
2016-May-27 16:29N 43°26' E 004°54'0 0.0
2016-May-27 15:13N 43°26' E 004°54'0 0.0
2016-May-27 13:05N 43°26' E 004°54'0 0.0
2016-May-27 11:10N 43°26' E 004°54'0 0.0
2016-May-27 10:26N 43°26' E 004°54'0 0.0
2016-May-27 05:14N 43°26' E 004°54'0 0.0
2016-May-27 04:33N 43°26' E 004°54'0 0.0
2016-May-27 03:33N 43°26' E 004°54'0 0.0
2016-May-27 02:33N 43°26' E 004°54'0 0.0
2016-May-27 01:14N 43°26' E 004°54'0 0.0
2016-May-27 00:33N 43°26' E 004°54'0 0.0
2016-May-26 18:28N 43°26' E 004°54'0 0.0
2016-May-26 17:22N 43°26' E 004°54'0 0.0
2016-May-26 06:29N 43°26' E 004°54'0 0.0
2016-May-26 05:31N 43°26' E 004°54'0 0.0
2016-May-26 04:33N 43°26' E 004°54'0 0.0
2016-May-26 03:34N 43°26' E 004°54'0 0.0
2016-May-26 02:30N 43°26' E 004°54'0 0.0
2016-May-26 01:30N 43°26' E 004°54'2 2.0
2016-May-26 00:34N 43°24' E 004°53'1 1.3
2016-May-25 23:33N 43°25' E 004°53'1 0.6
2016-May-25 22:28N 43°26' E 004°54'3 3.0
2016-May-25 21:33N 43°24' E 004°51'2 1.7
2016-May-25 20:33N 43°25' E 004°53'1 1.0
2016-May-25 19:33N 43°26' E 004°54'0 0.0
2016-May-25 18:33N 43°26' E 004°54'0 0.0
2016-May-25 15:33N 43°26' E 004°54'0 0.0
2016-May-25 14:26N 43°26' E 004°54'0 0.0
2016-May-25 09:09N 43°26' E 004°54'0 0.0
2016-May-25 07:31N 43°26' E 004°54'0 0.0
2016-May-25 06:32N 43°26' E 004°54'0 0.0
2016-May-25 05:32N 43°26' E 004°54'0 0.0
2016-May-25 04:33N 43°26' E 004°54'0 0.0
2016-May-25 03:33N 43°26' E 004°54'0 0.0
2016-May-25 02:33N 43°26' E 004°54'0 0.0
2016-May-25 01:32N 43°26' E 004°54'0 0.0
2016-May-25 00:32N 43°26' E 004°54'0 0.0
2016-May-24 23:33N 43°26' E 004°54'0 0.0
2016-May-24 22:34N 43°26' E 004°54'3 2.8
2016-May-24 21:32N 43°25' E 004°50'2 2.4
2016-May-24 20:33N 43°24' E 004°53'2 1.4
2016-May-24 19:29N 43°26' E 004°54'0 0.0
2016-May-24 18:34N 43°26' E 004°54'0 0.0
2016-May-24 17:33N 43°26' E 004°54'0 0.0
2016-May-24 16:34N 43°26' E 004°54'2 2.4
2016-May-24 15:33N 43°25' E 004°51'2 1.8
2016-May-24 14:27N 43°24' E 004°53'2 0.4
2016-May-24 10:27N 43°26' E 004°54'0 0.0
2016-May-24 09:10N 43°26' E 004°54'0 0.0
2016-May-24 08:32N 43°26' E 004°54'0 0.0
2016-May-24 07:32N 43°26' E 004°54'0 0.0
2016-May-24 06:30N 43°26' E 004°54'0 0.0
2016-May-24 05:33N 43°26' E 004°54'0 0.0
2016-May-24 04:28N 43°26' E 004°54'3 2.7
2016-May-24 03:33N 43°25' E 004°51'2 1.9
2016-May-24 02:33N 43°24' E 004°53'2 1.5
2016-May-24 01:31N 43°26' E 004°52'1 1.5
2016-May-24 00:33N 43°25' E 004°51'2 1.8
2016-May-23 23:33N 43°25' E 004°53'1 0.7
2016-May-23 22:32N 43°26' E 004°54'0 0.0
2016-May-23 21:33N 43°26' E 004°54'0 0.0
2016-May-23 20:34N 43°26' E 004°54'0 0.0
2016-May-23 19:33N 43°26' E 004°54'0 0.0
2016-May-23 18:29N 43°26' E 004°54'0 0.0
2016-May-23 17:32N 43°26' E 004°54'0 0.0
2016-May-23 16:30N 43°26' E 004°54'0 0.0
2016-May-23 15:33N 43°26' E 004°54'0 0.0
2016-May-23 14:24N 43°26' E 004°54'0 0.0
2016-May-23 13:34N 43°26' E 004°54'0 0.0
2016-May-23 12:31N 43°26' E 004°54'0 0.0
2016-May-23 11:33N 43°26' E 004°54'2 1.8
2016-May-23 10:34N 43°24' E 004°53'1 0.8
2016-May-23 09:33N 43°25' E 004°53'1 1.1
2016-May-23 08:33N 43°26' E 004°54'0 0.0
2016-May-23 07:25N 43°26' E 004°54'0 0.0
2016-May-23 06:33N 43°26' E 004°54'0 0.0
2016-May-23 05:33N 43°26' E 004°54'0 0.0
2016-May-23 04:33N 43°26' E 004°54'0 0.0
2016-May-23 03:33N 43°26' E 004°54'0 0.0
2016-May-23 02:33N 43°26' E 004°54'0 0.0
2016-May-23 01:34N 43°26' E 004°54'0 0.0
2016-May-23 00:27N 43°26' E 004°54'0 0.0
2016-May-22 23:32N 43°26' E 004°54'0 0.0
2016-May-22 22:30N 43°26' E 004°54'0 0.0
2016-May-22 21:31N 43°26' E 004°54'0 0.0
2016-May-22 20:33N 43°26' E 004°54'0 0.3
2016-May-22 19:33N 43°26' E 004°54'1 0.9
2016-May-22 18:34N 43°25' E 004°54'1 1.1
2016-May-22 17:32N 43°26' E 004°54'0 0.0
2016-May-22 16:32N 43°26' E 004°54'3 2.7
2016-May-22 15:33N 43°25' E 004°51'2 1.8
2016-May-22 14:34N 43°25' E 004°53'1 1.2
2016-May-22 13:34N 43°26' E 004°54'1 1.1
2016-May-22 12:33N 43°25' E 004°53'2 1.8
2016-May-22 11:33N 43°25' E 004°51'1 1.5
2016-May-22 10:33N 43°25' E 004°53'1 1.1
2016-May-22 09:33N 43°26' E 004°54'0 0.0
2016-May-22 08:34N 43°26' E 004°54'0 0.0
2016-May-22 07:33N 43°26' E 004°54'0 0.0
2016-May-22 06:33N 43°26' E 004°54'0 0.0
2016-May-22 05:34N 43°26' E 004°54'0 0.0
2016-May-22 04:33N 43°26' E 004°54'0 0.0
2016-May-22 03:34N 43°26' E 004°54'0 0.0
2016-May-22 02:28N 43°26' E 004°54'0 0.0
2016-May-22 01:33N 43°26' E 004°54'0 0.0
2016-May-22 00:34N 43°26' E 004°54'2 2.3
2016-May-21 23:33N 43°24' E 004°51'0 0.3
2016-May-21 22:33N 43°24' E 004°52'1 1.1
2016-May-21 21:33N 43°24' E 004°53'1 1.2
2016-May-21 20:33N 43°25' E 004°53'1 0.8
2016-May-21 19:33N 43°26' E 004°54'0 0.0
2016-May-21 13:33N 43°26' E 004°54'0 0.0
2016-May-21 12:33N 43°26' E 004°54'0 0.0
2016-May-21 11:30N 43°26' E 004°54'3 3.3
2016-May-21 10:33N 43°24' E 004°51'3 2.8
2016-May-21 09:34N 43°25' E 004°54'0 0.2
2016-May-21 07:25N 43°26' E 004°54'0 0.0
2016-May-21 06:33N 43°26' E 004°54'1 0.7
2016-May-21 05:33N 43°25' E 004°53'1 1.5
2016-May-21 04:34N 43°24' E 004°54'4 3.5
2016-May-21 03:33N 43°24' E 004°59'0 0.0
2016-May-21 02:33N 43°24' E 004°59'0 0.0
2016-May-21 01:34N 43°24' E 004°59'0 0.4
2016-May-21 00:33N 43°24' E 004°60'5 4.4
2016-May-20 23:30N 43°25' E 004°53'4 4.7
2016-May-20 22:33N 43°24' E 004°59'0 0.0
2016-May-20 21:33N 43°24' E 004°59'1 0.5
2016-May-20 20:33N 43°23' E 004°59'1 0.5
2016-May-20 19:33N 43°24' E 004°59'1 1.2
2016-May-20 18:33N 43°23' E 004°57'3 2.9
2016-May-20 17:33N 43°25' E 004°54'4 4.3
2016-May-20 16:33N 43°24' E 004°60'0 0.2
2016-May-20 15:33N 43°24' E 004°59'0 0.3
2016-May-20 14:34N 43°24' E 004°59'0 0.0
2016-May-20 13:33N 43°24' E 004°59'0 0.0
2016-May-20 12:33N 43°24' E 004°59'0 0.0
2016-May-20 11:34N 43°24' E 004°59'0 0.0
2016-May-20 10:33N 43°24' E 004°59'0 0.0
2016-May-20 09:34N 43°24' E 004°59'0 0.0
2016-May-20 08:33N 43°24' E 004°59'0 0.0
2016-May-20 07:33N 43°24' E 004°59'0 0.0
2016-May-20 06:34N 43°24' E 004°59'0 0.0
2016-May-20 05:34N 43°24' E 004°59'0 0.0
2016-May-20 04:33N 43°24' E 004°59'0 0.0
2016-May-20 03:33N 43°24' E 004°59'0 0.0
2016-May-20 02:33N 43°24' E 004°59'0 0.0
2016-May-20 01:33N 43°24' E 004°59'0 0.0
2016-May-20 00:33N 43°24' E 004°59'0 0.0
2016-May-19 23:33N 43°24' E 004°59'0 0.0
2016-May-19 22:33N 43°24' E 004°59'0 0.0
2016-May-19 21:34N 43°24' E 004°59'0 0.0
2016-May-19 20:33N 43°24' E 004°59'0 0.0
2016-May-19 19:33N 43°24' E 004°59'0 0.0
2016-May-19 18:34N 43°24' E 004°59'0 0.0
2016-May-19 17:33N 43°24' E 004°59'0 0.0
2016-May-19 16:34N 43°24' E 004°59'0 0.0
2016-May-19 15:33N 43°24' E 004°59'0 0.0
2016-May-19 14:33N 43°24' E 004°59'0 0.0
2016-May-19 13:33N 43°24' E 004°59'0 0.0
2016-May-19 12:33N 43°24' E 004°59'0 0.0
2016-May-19 11:33N 43°24' E 004°59'0 0.0
2016-May-19 10:33N 43°24' E 004°59'0 0.0
2016-May-19 09:33N 43°24' E 004°59'0 0.0
2016-May-19 08:34N 43°24' E 004°59'0 0.0
2016-May-19 07:33N 43°24' E 004°59'0 0.0
2016-May-19 06:34N 43°24' E 004°59'0 0.0
2016-May-19 05:34N 43°24' E 004°59'0 0.0
2016-May-19 04:33N 43°24' E 004°59'0 0.0
2016-May-19 03:33N 43°24' E 004°59'0 0.0
2016-May-19 02:33N 43°24' E 004°59'0 0.0
2016-May-19 01:33N 43°24' E 004°59'0 0.0
2016-May-19 00:33N 43°24' E 004°59'0 0.0
2016-May-18 23:33N 43°24' E 004°59'0 0.0
2016-May-18 22:33N 43°24' E 004°59'0 0.0
2016-May-18 21:33N 43°24' E 004°59'0 0.0
2016-May-18 20:33N 43°24' E 004°59'0 0.0
2016-May-18 19:33N 43°24' E 004°59'0 0.0
2016-May-18 18:34N 43°24' E 004°59'0 0.0
2016-May-18 17:33N 43°24' E 004°59'0 0.0
2016-May-18 16:34N 43°24' E 004°59'0 0.0
2016-May-18 15:33N 43°24' E 004°59'0 0.0
2016-May-18 14:33N 43°24' E 004°59'0 0.0
2016-May-18 13:34N 43°24' E 004°59'0 0.0
2016-May-18 12:34N 43°24' E 004°59'0 0.0
2016-May-18 11:33N 43°24' E 004°59'0 0.0
2016-May-18 10:34N 43°24' E 004°59'0 0.0
2016-May-18 09:33N 43°24' E 004°59'  

Dump ship's entire track history